Time;durP1;ratioP1;P1;durP2;ratioP2;P2;SDS_P1;SDS_P2;PMS_P1;PMS_P2;Temp;Humidity;BMP_temperature;BMP_pressure;BME280_temperature;BME280_humidity;BME280_pressure;Samples;Min_cycle;Max_cycle;Signal;HPM_P1;HPM_P2
2022/04/07 00:01:21;;;;;;;7.70;1.53;;;12.60;99.90;;;;;;5088091;28;20749;-38
2022/04/07 00:03:48;;;;;;;3.63;1.30;;;12.60;99.90;;;;;;5056100;28;20218;-38
2022/04/07 00:06:15;;;;;;;3.50;1.20;;;12.60;99.90;;;;;;5048736;28;20200;-38
2022/04/07 00:08:45;;;;;;;7.77;1.90;;;12.70;99.90;;;;;;5067762;28;20213;-38
2022/04/07 00:11:16;;;;;;;3.63;1.30;;;12.70;99.90;;;;;;5066714;28;20270;-38
2022/04/07 00:13:43;;;;;;;4.07;1.67;;;12.70;99.90;;;;;;5065856;28;20203;-38
2022/04/07 00:16:14;;;;;;;5.40;2.83;;;12.70;99.90;;;;;;5067302;28;20556;-38
2022/04/07 00:18:41;;;;;;;5.03;3.23;;;12.70;99.90;;;;;;5067414;28;20610;-38
2022/04/07 00:21:24;;;;;;;5.47;3.43;;;12.70;99.90;;;;;;5053401;28;20262;-38
2022/04/07 00:23:53;;;;;;;6.37;3.00;;;12.70;99.90;;;;;;5052004;28;20230;-38
2022/04/07 00:26:22;;;;;;;6.20;2.90;;;12.70;99.90;;;;;;5067777;28;20243;-38
2022/04/07 00:28:52;;;;;;;5.03;2.87;;;12.80;99.90;;;;;;5067290;28;20202;-38
2022/04/07 00:31:24;;;;;;;4.17;2.37;;;12.70;99.90;;;;;;5067621;28;20308;-39
2022/04/07 00:33:54;;;;;;;3.40;2.13;;;12.80;99.90;;;;;;5067043;28;20195;-38
2022/04/07 00:36:26;;;;;;;3.57;2.10;;;12.70;99.90;;;;;;5067391;28;20269;-38
2022/04/07 00:38:53;;;;;;;8.43;2.20;;;12.70;99.90;;;;;;5046053;28;20654;-37
2022/04/07 00:41:23;;;;;;;4.17;2.07;;;12.80;99.90;;;;;;5059301;28;20690;-37
2022/04/07 00:43:53;;;;;;;7.33;2.43;;;12.80;99.90;;;;;;5067195;28;20659;-37
2022/04/07 00:46:23;;;;;;;6.20;2.30;;;12.80;99.90;;;;;;5065661;28;20231;-37
2022/04/07 00:48:53;;;;;;;3.27;2.13;;;12.80;99.90;;;;;;5067247;28;20214;-38
2022/04/07 00:51:22;;;;;;;5.20;2.67;;;12.80;99.90;;;;;;5067060;28;20286;-37
2022/04/07 00:53:50;;;;;;;5.87;2.13;;;12.80;99.90;;;;;;5056428;28;20246;-37
2022/04/07 00:56:19;;;;;;;6.47;2.40;;;12.80;99.90;;;;;;5067376;28;20195;-37
2022/04/07 00:58:47;;;;;;;5.70;2.60;;;12.80;99.90;;;;;;5065992;28;20747;-37
2022/04/07 01:01:18;;;;;;;4.27;1.97;;;12.80;99.90;;;;;;5065165;28;20599;-38
2022/04/07 01:03:51;;;;;;;6.43;2.50;;;12.80;99.90;;;;;;5066919;28;20590;-37
2022/04/07 01:06:19;;;;;;;5.30;2.50;;;12.80;99.90;;;;;;5067031;28;20754;-38
2022/04/07 01:08:51;;;;;;;7.60;2.73;;;12.80;99.90;;;;;;5064350;28;20294;-37
2022/04/07 01:11:26;;;;;;;6.27;2.60;;;12.80;99.90;;;;;;5072551;28;20206;-37
2022/04/07 01:13:56;;;;;;;7.60;2.80;;;12.80;99.90;;;;;;5073721;28;20235;-38
2022/04/07 01:16:30;;;;;;;5.80;2.37;;;12.90;99.90;;;;;;5073478;28;20191;-37
2022/04/07 01:19:00;;;;;;;5.23;2.27;;;12.80;99.90;;;;;;5072071;28;20656;-37
2022/04/07 01:21:31;;;;;;;6.97;2.10;;;12.80;99.90;;;;;;5071773;28;20195;-37
2022/04/07 01:24:12;;;;;;;5.30;2.40;;;12.80;99.90;;;;;;5073645;28;20203;-38
2022/04/07 01:26:41;;;;;;;3.53;2.33;;;12.80;99.90;;;;;;5073673;28;20195;-37
2022/04/07 01:29:14;;;;;;;6.27;2.60;;;12.80;99.90;;;;;;5072514;28;20230;-37
2022/04/07 01:31:45;;;;;;;5.47;2.00;;;12.80;99.90;;;;;;5072445;28;20219;-37
2022/04/07 01:34:14;;;;;;;8.13;2.30;;;12.80;99.90;;;;;;5073055;28;20231;-37
2022/04/07 01:36:47;;;;;;;3.80;1.87;;;12.80;99.90;;;;;;5073905;28;20223;-38
2022/04/07 01:39:21;;;;;;;4.57;1.80;;;12.90;99.90;;;;;;5072338;28;20633;-37
2022/04/07 01:41:53;;;;;;;5.37;2.10;;;12.90;99.90;;;;;;5074098;28;20206;-37
2022/04/07 01:44:26;;;;;;;7.23;2.20;;;12.90;99.90;;;;;;5072002;28;20207;-37
2022/04/07 01:46:58;;;;;;;3.93;1.90;;;12.90;99.90;;;;;;5065878;28;20211;-37
2022/04/07 01:49:30;;;;;;;4.77;1.80;;;12.90;99.90;;;;;;5072856;28;20243;-34
2022/04/07 01:52:02;;;;;;;4.30;2.13;;;12.90;99.90;;;;;;5073543;28;20254;-34
2022/04/07 01:54:35;;;;;;;4.23;1.60;;;12.90;99.90;;;;;;5072393;28;20313;-34
2022/04/07 01:57:05;;;;;;;3.83;1.73;;;12.90;99.90;;;;;;5093922;28;20321;-34
2022/04/07 01:59:36;;;;;;;6.57;1.50;;;12.90;99.90;;;;;;5093462;28;20203;-33
2022/04/07 02:02:06;;;;;;;5.90;1.60;;;12.90;99.90;;;;;;5082853;28;20654;-34
2022/04/07 02:04:33;;;;;;;3.83;1.33;;;12.90;99.90;;;;;;5072778;28;20611;-34
2022/04/07 02:07:05;;;;;;;5.53;2.33;;;12.90;99.90;;;;;;5064776;28;20606;-34
2022/04/07 02:09:35;;;;;;;6.80;2.37;;;12.90;99.90;;;;;;5073599;28;20207;-34
2022/04/07 02:12:07;;;;;;;4.90;1.70;;;12.90;99.90;;;;;;5073114;28;20249;-34
2022/04/07 02:14:37;;;;;;;7.23;2.27;;;12.90;99.90;;;;;;5072942;28;20192;-33
2022/04/07 02:17:04;;;;;;;5.43;1.97;;;12.90;99.90;;;;;;5072824;28;20227;-34
2022/04/07 02:19:39;;;;;;;6.67;2.17;;;12.90;99.90;;;;;;5072172;28;20655;-37
2022/04/07 02:22:06;;;;;;;6.97;2.10;;;12.90;99.90;;;;;;5069221;28;20203;-37
2022/04/07 02:24:37;;;;;;;7.67;2.17;;;12.90;99.90;;;;;;5070013;28;20284;-37
2022/04/07 02:27:10;;;;;;;7.83;2.40;;;12.90;99.90;;;;;;5070039;28;20226;-37
2022/04/07 02:29:38;;;;;;;5.33;2.50;;;12.90;99.90;;;;;;5067492;28;20225;-37
2022/04/07 02:32:16;;;;;;;4.57;1.87;;;12.80;99.90;;;;;;5048162;28;20239;-38
2022/04/07 02:34:48;;;;;;;6.50;2.03;;;12.80;99.90;;;;;;5049829;28;20202;-37
2022/04/07 02:37:15;;;;;;;4.67;1.90;;;12.80;99.90;;;;;;5064453;28;20293;-36
2022/04/07 02:39:42;;;;;;;6.97;2.40;;;12.80;99.90;;;;;;5069536;28;20199;-36
2022/04/07 02:42:14;;;;;;;6.43;1.90;;;12.80;99.90;;;;;;5069674;28;20231;-37
2022/04/07 02:44:44;;;;;;;7.37;2.30;;;12.80;99.90;;;;;;5069790;28;20278;-37
2022/04/07 02:47:12;;;;;;;7.47;2.60;;;12.80;99.90;;;;;;5067553;28;20246;-37
2022/04/07 02:49:42;;;;;;;4.83;2.33;;;12.80;99.90;;;;;;5069169;28;20238;-37
2022/04/07 02:52:13;;;;;;;6.20;2.73;;;12.80;99.90;;;;;;5068051;28;20254;-38
2022/04/07 02:54:43;;;;;;;4.90;2.33;;;12.90;99.90;;;;;;5042199;28;20670;-37
2022/04/07 02:57:10;;;;;;;6.47;2.60;;;12.90;99.90;;;;;;5059405;28;20294;-37
2022/04/07 02:59:39;;;;;;;6.20;2.50;;;12.90;99.90;;;;;;5068872;28;20199;-37
2022/04/07 03:02:12;;;;;;;4.73;2.53;;;12.90;99.90;;;;;;5068924;28;20706;-37
2022/04/07 03:04:41;;;;;;;6.33;2.17;;;12.90;99.90;;;;;;5069142;28;20692;-37
2022/04/07 03:07:11;;;;;;;4.67;2.00;;;12.80;99.90;;;;;;5069240;28;20214;-37
2022/04/07 03:09:40;;;;;;;5.80;2.13;;;12.80;99.90;;;;;;5068451;28;20195;-36
2022/04/07 03:12:09;;;;;;;4.43;2.27;;;12.90;99.90;;;;;;5069210;28;20219;-37
2022/04/07 03:14:40;;;;;;;4.43;1.90;;;12.90;99.90;;;;;;5067062;28;20207;-37
2022/04/07 03:17:09;;;;;;;3.03;2.00;;;12.90;99.90;;;;;;5069012;28;20636;-37
2022/04/07 03:19:39;;;;;;;5.53;2.50;;;12.90;99.90;;;;;;5067418;28;20214;-37
2022/04/07 03:22:06;;;;;;;2.90;2.10;;;12.90;99.90;;;;;;5069001;28;20302;-37
2022/04/07 03:24:33;;;;;;;3.70;2.30;;;12.90;99.90;;;;;;5068906;28;20204;-36
2022/04/07 03:27:06;;;;;;;3.00;2.27;;;12.90;99.90;;;;;;5062117;28;20232;-37
2022/04/07 03:29:39;;;;;;;3.23;1.77;;;12.90;99.90;;;;;;5049257;28;20204;-37
2022/04/07 03:32:09;;;;;;;3.27;1.60;;;12.90;99.90;;;;;;5067976;28;20221;-37
2022/04/07 03:34:38;;;;;;;2.83;1.50;;;13.00;99.90;;;;;;5068480;28;20199;-37
2022/04/07 03:37:08;;;;;;;1.43;1.00;;;13.00;99.90;;;;;;5068339;28;20211;-37
2022/04/07 03:39:38;;;;;;;0.80;0.67;;;13.00;99.90;;;;;;5068948;28;20459;-37
2022/04/07 03:42:06;;;;;;;2.83;0.93;;;12.90;99.90;;;;;;5068616;28;20591;-37
2022/04/07 03:44:33;;;;;;;1.50;0.90;;;13.00;99.90;;;;;;5040814;28;20309;-37
2022/04/07 03:47:02;;;;;;;1.40;0.70;;;13.00;99.90;;;;;;5048325;28;20821;-37
2022/04/07 03:49:32;;;;;;;0.70;0.70;;;13.00;99.90;;;;;;5056988;28;20212;-37
2022/04/07 03:51:59;;;;;;;2.40;0.83;;;13.00;99.90;;;;;;5055206;28;20678;-38
2022/04/07 03:54:29;;;;;;;1.13;0.70;;;13.00;99.90;;;;;;5074214;28;20261;-37
2022/04/07 03:56:56;;;;;;;2.37;1.00;;;13.00;99.90;;;;;;5048380;28;20667;-37
2022/04/07 03:59:29;;;;;;;0.83;0.63;;;13.00;99.90;;;;;;5047464;28;20216;-37
2022/04/07 04:01:56;;;;;;;1.17;0.80;;;13.00;99.90;;;;;;5055703;28;20568;-36
2022/04/07 04:04:26;;;;;;;1.20;0.63;;;13.00;99.90;;;;;;5067035;28;20204;-36
2022/04/07 04:06:53;;;;;;;3.17;1.10;;;13.00;99.90;;;;;;5046788;28;20204;-35
2022/04/07 04:09:21;;;;;;;2.60;1.10;;;13.00;99.90;;;;;;5046864;28;20219;-36
2022/04/07 04:11:50;;;;;;;2.27;1.10;;;13.00;99.90;;;;;;5048274;28;20244;-36
2022/04/07 04:14:20;;;;;;;3.43;1.00;;;12.90;99.90;;;;;;5047461;28;20728;-36
2022/04/07 04:16:50;;;;;;;3.00;1.13;;;13.00;99.90;;;;;;5047641;28;20278;-36
2022/04/07 04:19:17;;;;;;;1.80;0.80;;;12.90;99.90;;;;;;5048370;28;20200;-36
2022/04/07 04:21:45;;;;;;;4.20;1.00;;;12.90;99.90;;;;;;5051175;28;20318;-36
2022/04/07 04:24:15;;;;;;;2.67;1.20;;;12.90;99.90;;;;;;5067644;28;20306;-36
2022/04/07 04:26:42;;;;;;;2.10;1.03;;;12.90;99.90;;;;;;5067638;28;20228;-36
2022/04/07 04:29:12;;;;;;;2.87;1.30;;;12.90;99.90;;;;;;5067293;28;20302;-36
2022/04/07 04:31:39;;;;;;;4.17;1.20;;;12.80;99.90;;;;;;5067395;28;20302;-36
2022/04/07 04:34:08;;;;;;;3.90;1.40;;;12.80;99.90;;;;;;5065937;28;20233;-36
2022/04/07 04:36:43;;;;;;;4.57;1.67;;;12.80;99.90;;;;;;5049704;28;20668;-33
2022/04/07 04:39:15;;;;;;;4.00;1.50;;;12.80;99.90;;;;;;5054288;28;20650;-34
2022/04/07 04:41:46;;;;;;;4.63;1.60;;;12.80;99.90;;;;;;5068017;28;20196;-33
2022/04/07 04:44:14;;;;;;;2.90;1.50;;;12.80;99.90;;;;;;5066472;28;20231;-33
2022/04/07 04:46:46;;;;;;;4.63;1.60;;;12.80;99.90;;;;;;5063039;28;20207;-34
2022/04/07 04:49:15;;;;;;;4.50;1.80;;;12.80;99.90;;;;;;5051297;28;20327;-33
2022/04/07 04:51:47;;;;;;;3.30;1.50;;;12.80;99.90;;;;;;5050373;28;20320;-33
2022/04/07 04:54:20;;;;;;;6.50;1.80;;;12.80;99.90;;;;;;5073763;28;20785;-35
2022/04/07 04:56:50;;;;;;;6.17;1.60;;;12.70;99.90;;;;;;5074921;28;20224;-36
2022/04/07 04:59:22;;;;;;;3.83;1.30;;;12.70;99.90;;;;;;5066355;28;20293;-36
2022/04/07 05:01:49;;;;;;;7.13;1.70;;;12.70;99.90;;;;;;5056674;28;20192;-36
2022/04/07 05:04:17;;;;;;;4.10;1.47;;;12.70;99.90;;;;;;5063892;28;20280;-35
2022/04/07 05:06:44;;;;;;;4.17;1.53;;;12.70;99.90;;;;;;5062110;28;20757;-35
2022/04/07 05:09:11;;;;;;;5.63;1.13;;;12.70;99.90;;;;;;5055117;28;20841;-36
2022/04/07 05:11:43;;;;;;;6.50;1.30;;;12.60;99.90;;;;;;5067438;28;20212;-36
2022/04/07 05:14:11;;;;;;;2.17;1.20;;;12.70;99.90;;;;;;5066376;28;20227;-35
2022/04/07 05:16:38;;;;;;;2.77;0.90;;;12.60;99.90;;;;;;5067159;28;20225;-36
2022/04/07 05:19:06;;;;;;;4.17;1.30;;;12.60;99.90;;;;;;5066314;28;20203;-36
2022/04/07 05:21:35;;;;;;;5.97;1.07;;;12.60;99.90;;;;;;5066576;28;20199;-36
2022/04/07 05:24:07;;;;;;;5.53;1.27;;;12.60;99.90;;;;;;5066596;28;20644;-36
2022/04/07 05:26:37;;;;;;;5.50;1.80;;;12.60;99.90;;;;;;5066179;28;20207;-36
2022/04/07 05:29:04;;;;;;;2.73;0.87;;;12.60;99.90;;;;;;5065737;28;20238;-36
2022/04/07 05:31:31;;;;;;;4.00;0.97;;;12.50;99.90;;;;;;5066333;28;20303;-36
2022/04/07 05:34:01;;;;;;;2.03;1.07;;;12.50;99.90;;;;;;5066038;28;20227;-36
2022/04/07 05:36:28;;;;;;;3.50;0.90;;;12.50;99.90;;;;;;5066131;28;20611;-36
2022/04/07 05:38:55;;;;;;;3.90;1.03;;;12.50;99.90;;;;;;5064382;28;20200;-36
2022/04/07 05:41:25;;;;;;;3.97;0.93;;;12.50;99.90;;;;;;5066464;28;20566;-36
2022/04/07 05:43:52;;;;;;;9.27;1.43;;;12.40;99.90;;;;;;5042567;28;20334;-35
2022/04/07 05:46:22;;;;;;;6.30;1.10;;;12.40;99.90;;;;;;5052111;28;20937;-35
2022/04/07 05:48:54;;;;;;;4.83;0.90;;;12.40;99.90;;;;;;5059538;28;20245;-36
2022/04/07 05:51:21;;;;;;;3.97;0.90;;;12.40;99.90;;;;;;5052620;28;20238;-36
2022/04/07 05:53:48;;;;;;;2.67;0.90;;;12.40;99.90;;;;;;5055287;28;20327;-36
2022/04/07 05:56:16;;;;;;;4.50;1.10;;;12.40;99.90;;;;;;5059857;28;20292;-36
2022/04/07 05:58:47;;;;;;;3.27;0.93;;;12.50;99.90;;;;;;5067605;28;20187;-36
2022/04/07 06:01:17;;;;;;;3.57;0.80;;;12.40;99.90;;;;;;5057175;28;20214;-36
2022/04/07 06:03:45;;;;;;;2.43;1.20;;;12.40;99.90;;;;;;5064167;28;20894;-36
2022/04/07 06:06:15;;;;;;;2.93;1.27;;;12.50;99.90;;;;;;5057886;28;20212;-36
2022/04/07 06:08:42;;;;;;;4.27;0.90;;;12.50;99.90;;;;;;5057603;28;20215;-36
2022/04/07 06:11:09;;;;;;;3.60;1.10;;;12.50;99.90;;;;;;5066159;28;20288;-36
2022/04/07 06:13:39;;;;;;;4.07;1.20;;;12.50;99.90;;;;;;5066844;28;20303;-36
2022/04/07 06:16:08;;;;;;;3.33;1.30;;;12.50;99.90;;;;;;5051918;28;20295;-36
2022/04/07 06:18:41;;;;;;;4.27;1.20;;;12.50;99.90;;;;;;5062603;28;20326;-36
2022/04/07 06:21:10;;;;;;;4.33;1.10;;;12.50;99.90;;;;;;5060059;28;20223;-36
2022/04/07 06:23:39;;;;;;;3.57;1.17;;;12.60;99.90;;;;;;5064647;28;20208;-36
2022/04/07 06:26:09;;;;;;;4.03;0.90;;;12.60;99.90;;;;;;5058718;28;20245;-36
2022/04/07 06:28:36;;;;;;;3.57;0.70;;;12.60;99.90;;;;;;5065499;28;20821;-36
2022/04/07 06:31:03;;;;;;;4.40;1.37;;;12.60;99.90;;;;;;5063363;28;20371;-35
2022/04/07 06:33:30;;;;;;;2.20;0.80;;;12.60;99.90;;;;;;5062005;28;20208;-35
2022/04/07 06:36:18;;;;;;;4.63;1.17;;;12.70;99.90;;;;;;5065135;28;20215;-35
2022/04/07 06:38:47;;;;;;;4.50;1.07;;;12.70;99.90;;;;;;5069214;28;20613;-35
2022/04/07 06:41:14;;;;;;;3.57;1.00;;;12.70;99.90;;;;;;5064970;28;20622;-36
2022/04/07 06:43:44;;;;;;;2.67;0.83;;;12.70;99.90;;;;;;5052667;28;20217;-35
2022/04/07 06:46:14;;;;;;;3.03;1.07;;;12.70;99.90;;;;;;5067302;28;20273;-36
2022/04/07 06:48:47;;;;;;;2.17;0.77;;;12.70;99.90;;;;;;5066786;28;20272;-35
2022/04/07 06:51:17;;;;;;;3.73;1.00;;;12.80;99.90;;;;;;5058559;28;20220;-35
2022/04/07 06:53:47;;;;;;;3.67;1.10;;;12.80;99.90;;;;;;5072348;28;20235;-36
2022/04/07 06:56:16;;;;;;;4.43;1.00;;;12.80;99.90;;;;;;5072003;28;20203;-35
2022/04/07 06:58:45;;;;;;;1.63;0.70;;;12.70;99.90;;;;;;5069450;28;20232;-35
2022/04/07 07:01:14;;;;;;;3.07;0.97;;;12.80;99.90;;;;;;5058445;28;20559;-34
2022/04/07 07:03:46;;;;;;;2.10;0.70;;;12.80;99.90;;;;;;5065643;28;20528;-33
2022/04/07 07:06:14;;;;;;;0.93;0.80;;;12.90;99.90;;;;;;5068099;28;20214;-34
2022/04/07 07:08:42;;;;;;;1.90;0.70;;;12.90;99.90;;;;;;5054086;28;20584;-34
2022/04/07 07:11:12;;;;;;;3.53;0.80;;;12.90;99.90;;;;;;5049191;28;20628;-34
2022/04/07 07:13:39;;;;;;;1.03;0.50;;;13.00;99.90;;;;;;5066036;28;20211;-34
2022/04/07 07:16:07;;;;;;;1.70;0.80;;;13.00;99.90;;;;;;5051072;28;20200;-34
2022/04/07 07:18:34;;;;;;;1.50;0.80;;;13.00;99.90;;;;;;5059797;28;20227;-34
2022/04/07 07:21:01;;;;;;;1.70;0.70;;;13.10;99.90;;;;;;5064844;28;20208;-34
2022/04/07 07:23:28;;;;;;;1.47;0.77;;;13.10;99.90;;;;;;5066458;28;20207;-34
2022/04/07 07:25:58;;;;;;;0.90;0.50;;;13.10;99.90;;;;;;5063309;28;20208;-34
2022/04/07 07:28:25;;;;;;;1.90;0.80;;;13.10;99.90;;;;;;5059543;28;20212;-34
2022/04/07 07:30:52;;;;;;;3.83;0.80;;;13.20;99.90;;;;;;5054076;28;20212;-33
2022/04/07 07:33:22;;;;;;;1.67;0.63;;;13.20;99.90;;;;;;5061380;28;20226;-34
2022/04/07 07:35:52;;;;;;;2.07;0.73;;;13.30;99.90;;;;;;5064787;28;20547;-34
2022/04/07 07:38:20;;;;;;;1.27;0.60;;;13.30;99.90;;;;;;5066711;28;20207;-34
2022/04/07 07:40:48;;;;;;;0.60;0.60;;;13.30;99.90;;;;;;5056982;28;20208;-34
2022/04/07 07:43:20;;;;;;;1.60;0.90;;;13.40;99.90;;;;;;5053263;28;20207;-34
2022/04/07 07:45:50;;;;;;;1.97;0.60;;;13.40;99.90;;;;;;5059306;28;20749;-34
2022/04/07 07:48:28;;;;;;;1.73;0.80;;;13.40;99.90;;;;;;5046590;28;20234;-34
2022/04/07 07:50:56;;;;;;;3.63;0.80;;;13.50;99.90;;;;;;5050414;28;20206;-35
2022/04/07 07:53:24;;;;;;;1.30;1.00;;;13.50;99.90;;;;;;5060171;28;20741;-35
2022/04/07 07:55:57;;;;;;;3.73;1.30;;;13.50;99.90;;;;;;5046723;28;20299;-34
2022/04/07 07:58:29;;;;;;;5.20;2.07;;;13.50;99.90;;;;;;5061826;28;20294;-34
2022/04/07 08:00:56;;;;;;;4.90;3.17;;;13.60;99.90;;;;;;5060843;28;20204;-34
2022/04/07 08:03:24;;;;;;;4.00;3.50;;;13.60;99.90;;;;;;5057548;28;20330;-34
2022/04/07 08:05:57;;;;;;;3.77;3.27;;;13.60;99.90;;;;;;5057445;28;20205;-35
2022/04/07 08:08:24;;;;;;;3.83;3.47;;;13.70;99.90;;;;;;5052051;28;20216;-34
2022/04/07 08:10:51;;;;;;;3.40;3.10;;;13.70;99.90;;;;;;5064748;28;20230;-34
2022/04/07 08:13:21;;;;;;;3.80;2.90;;;13.70;99.90;;;;;;5067263;28;20298;-34
2022/04/07 08:15:49;;;;;;;2.93;2.70;;;13.80;99.90;;;;;;5055039;28;20196;-34
2022/04/07 08:18:16;;;;;;;2.80;2.60;;;13.80;99.90;;;;;;5050967;28;20354;-34
2022/04/07 08:20:43;;;;;;;2.10;1.90;;;13.80;99.90;;;;;;5057567;28;20203;-34
2022/04/07 08:23:11;;;;;;;2.97;1.57;;;13.80;99.90;;;;;;5053545;28;20195;-34
2022/04/07 08:25:45;;;;;;;1.23;0.70;;;13.80;99.90;;;;;;5052552;28;20215;-34
2022/04/07 08:28:12;;;;;;;1.43;0.90;;;13.90;99.90;;;;;;5059295;28;20211;-34
2022/04/07 08:30:42;;;;;;;0.97;0.40;;;13.90;99.90;;;;;;5057394;28;20717;-34
2022/04/07 08:33:09;;;;;;;0.70;0.20;;;13.90;99.90;;;;;;5050732;28;20208;-35
2022/04/07 08:35:36;;;;;;;3.50;0.30;;;13.90;99.90;;;;;;5064962;28;20195;-34
2022/04/07 08:38:04;;;;;;;0.87;0.30;;;13.90;99.90;;;;;;5062163;28;20215;-35
2022/04/07 08:40:34;;;;;;;0.40;0.23;;;13.80;99.90;;;;;;5060015;28;20203;-35
2022/04/07 08:43:08;;;;;;;0.40;0.13;;;13.80;99.90;;;;;;5062471;28;20192;-35
2022/04/07 08:45:40;;;;;;;0.60;0.27;;;13.80;99.90;;;;;;5062862;28;20689;-35
2022/04/07 08:48:12;;;;;;;1.17;0.27;;;13.70;99.90;;;;;;5060068;28;20219;-35
2022/04/07 08:50:43;;;;;;;0.50;0.30;;;13.70;99.90;;;;;;5058068;28;20217;-35
2022/04/07 08:53:12;;;;;;;1.40;0.20;;;13.60;99.90;;;;;;5057609;28;20583;-35
2022/04/07 08:55:40;;;;;;;0.43;0.23;;;13.60;99.90;;;;;;5062895;28;20231;-35
2022/04/07 08:58:10;;;;;;;0.77;0.30;;;13.60;99.90;;;;;;5060552;28;20253;-35
2022/04/07 09:00:39;;;;;;;1.77;0.30;;;13.60;99.90;;;;;;5065016;28;20211;-35
2022/04/07 09:03:09;;;;;;;1.37;0.60;;;13.60;99.90;;;;;;5059845;28;20214;-35
2022/04/07 09:06:01;;;;;;;0.73;0.30;;;13.60;99.90;;;;;;5064611;28;20692;-35
2022/04/07 09:08:37;;;;;;;1.03;0.40;;;13.60;99.90;;;;;;5063082;28;20216;-35
2022/04/07 09:11:10;;;;;;;0.93;0.40;;;13.60;99.90;;;;;;5062874;28;20211;-35
2022/04/07 09:13:42;;;;;;;0.40;0.30;;;13.60;99.90;;;;;;5053286;28;20770;-35
2022/04/07 09:16:18;;;;;;;1.57;0.30;;;13.60;99.90;;;;;;5063089;28;20218;-35
2022/04/07 09:18:49;;;;;;;2.10;0.40;;;13.50;99.90;;;;;;5057556;28;20306;-35
2022/04/07 09:21:22;;;;;;;1.33;0.40;;;13.50;99.90;;;;;;5061891;28;20195;-35
2022/04/07 09:23:55;;;;;;;2.93;0.40;;;13.40;99.90;;;;;;5060975;28;20230;-35
2022/04/07 09:26:23;;;;;;;1.63;0.40;;;13.40;99.90;;;;;;5054126;28;20226;-35
2022/04/07 09:28:56;;;;;;;1.00;0.40;;;13.50;99.90;;;;;;5053037;28;20305;-35
2022/04/07 09:31:23;;;;;;;1.50;0.50;;;13.40;99.90;;;;;;5068793;28;20290;-35
2022/04/07 09:33:59;;;;;;;2.30;0.40;;;13.50;99.90;;;;;;5067288;28;20235;-36
2022/04/07 09:36:26;;;;;;;1.37;0.50;;;13.50;99.90;;;;;;5058693;28;20196;-35
2022/04/07 09:38:55;;;;;;;1.33;0.50;;;13.60;99.90;;;;;;5058974;28;20216;-35
2022/04/07 09:41:26;;;;;;;1.47;0.50;;;13.60;99.90;;;;;;5065280;28;20208;-35
2022/04/07 09:44:01;;;;;;;2.53;0.43;;;13.50;99.90;;;;;;5058466;28;20244;-35
2022/04/07 09:46:38;;;;;;;1.77;0.50;;;13.50;99.90;;;;;;5062382;28;20208;-35
2022/04/07 09:49:12;;;;;;;2.60;0.50;;;13.40;99.90;;;;;;5063311;28;20204;-35
2022/04/07 09:51:49;;;;;;;3.17;0.70;;;13.40;99.90;;;;;;5066468;28;20233;-35
2022/04/07 09:54:18;;;;;;;2.60;0.50;;;13.40;99.90;;;;;;5058448;28;20242;-35
2022/04/07 09:56:51;;;;;;;2.47;0.50;;;13.40;99.90;;;;;;5051356;28;20215;-35
2022/04/07 09:59:23;;;;;;;1.70;0.50;;;13.20;99.90;;;;;;5068063;28;20207;-35
2022/04/07 10:01:53;;;;;;;0.73;0.50;;;13.20;99.90;;;;;;5068923;28;20653;-35
2022/04/07 10:04:22;;;;;;;2.17;0.60;;;13.20;99.90;;;;;;5049490;28;20201;-35
2022/04/07 10:06:52;;;;;;;3.27;0.73;;;13.10;99.90;;;;;;5060418;28;20224;-35
2022/04/07 10:09:20;;;;;;;2.90;0.80;;;13.10;99.90;;;;;;5068365;28;20234;-35
2022/04/07 10:11:53;;;;;;;2.90;0.67;;;13.00;99.90;;;;;;5051922;28;20239;-35
2022/04/07 10:14:25;;;;;;;5.40;0.80;;;13.00;99.90;;;;;;5050899;28;20207;-35
2022/04/07 10:16:55;;;;;;;2.47;0.60;;;12.90;99.90;;;;;;5060314;28;20206;-37
2022/04/07 10:19:40;;;;;;;6.10;0.73;;;12.90;99.90;;;;;;5064218;28;20219;-37
2022/04/07 10:22:26;;;;;;;3.97;0.93;;;12.80;99.90;;;;;;5055252;28;20223;-37
2022/04/07 10:25:03;;;;;;;3.23;1.17;;;12.80;99.90;;;;;;5056981;28;20247;-38
2022/04/07 10:27:42;;;;;;;4.53;0.90;;;12.70;99.90;;;;;;5069206;28;20561;-38
2022/04/07 10:30:12;;;;;;;3.47;0.90;;;12.80;99.90;;;;;;5058546;28;20749;-37
2022/04/07 10:32:50;;;;;;;5.03;0.97;;;12.80;99.90;;;;;;5059723;28;20220;-34
2022/04/07 10:35:37;;;;;;;5.90;0.80;;;12.70;99.90;;;;;;5060326;28;20338;-34
2022/04/07 10:38:11;;;;;;;4.20;1.00;;;12.70;99.90;;;;;;5054620;28;20287;-35
2022/04/07 10:40:52;;;;;;;5.00;1.27;;;12.70;99.90;;;;;;5064236;28;20254;-34
2022/04/07 10:43:22;;;;;;;4.30;1.00;;;12.80;99.90;;;;;;5054095;28;20226;-34
2022/04/07 10:46:05;;;;;;;5.27;1.10;;;12.70;99.90;;;;;;5063856;28;20314;-34
2022/04/07 10:48:43;;;;;;;5.33;1.20;;;12.70;99.90;;;;;;5049420;28;20204;-34
2022/04/07 10:51:13;;;;;;;4.47;1.07;;;12.70;99.90;;;;;;5049815;28;20227;-34
2022/04/07 10:53:52;;;;;;;7.53;1.20;;;12.80;99.90;;;;;;5082974;28;20207;-34
2022/04/07 10:56:38;;;;;;;5.53;1.13;;;12.80;99.90;;;;;;5061762;28;20286;-34
2022/04/07 10:59:23;;;;;;;6.27;1.20;;;12.80;99.90;;;;;;5064959;28;20204;-35
2022/04/07 11:01:53;;;;;;;4.53;1.20;;;12.80;99.90;;;;;;5068902;28;20252;-34
2022/04/07 11:04:24;;;;;;;8.77;1.20;;;12.80;99.90;;;;;;5051319;28;20200;-34
2022/04/07 11:07:09;;;;;;;5.87;1.20;;;12.90;99.90;;;;;;5059352;28;20235;-35
2022/04/07 11:09:52;;;;;;;6.77;1.70;;;12.90;99.90;;;;;;5066255;28;20298;-34
2022/04/07 11:12:35;;;;;;;6.70;1.60;;;13.00;99.90;;;;;;5069370;28;20577;-34
2022/04/07 11:15:02;;;;;;;3.50;1.30;;;13.10;99.90;;;;;;5061231;28;20258;-35
2022/04/07 11:17:37;;;;;;;7.20;1.50;;;13.10;99.90;;;;;;5063963;28;20588;-35
2022/04/07 11:20:21;;;;;;;6.43;1.33;;;13.00;99.90;;;;;;5067604;28;20248;-34
2022/04/07 11:22:52;;;;;;;6.37;1.30;;;13.10;99.90;;;;;;5049977;28;20208;-34
2022/04/07 11:25:33;;;;;;;7.67;1.30;;;13.10;99.90;;;;;;5067044;28;20220;-34
2022/04/07 11:28:13;;;;;;;6.83;1.10;;;13.20;99.90;;;;;;5067195;28;20302;-34
2022/04/07 11:30:49;;;;;;;9.83;1.67;;;13.20;99.90;;;;;;5062992;28;20748;-33
2022/04/07 11:33:28;;;;;;;5.97;1.50;;;13.20;99.90;;;;;;5051033;28;20223;-33
2022/04/07 11:36:14;;;;;;;6.53;1.43;;;13.30;99.90;;;;;;5064219;28;20732;-33
2022/04/07 11:38:48;;;;;;;7.30;1.67;;;13.40;99.90;;;;;;5057185;28;20232;-38
2022/04/07 11:41:17;;;;;;;7.23;1.57;;;13.50;99.90;;;;;;5050514;28;20208;-34
2022/04/07 11:43:52;;;;;;;8.40;1.87;;;13.50;99.90;;;;;;5055636;28;20230;-40
2022/04/07 11:46:27;;;;;;;8.00;1.53;;;13.60;99.90;;;;;;5051963;28;20202;-41
2022/04/07 11:49:00;;;;;;;8.90;1.50;;;13.60;99.90;;;;;;5045823;28;20257;-41
2022/04/07 11:51:34;;;;;;;6.00;1.73;;;13.60;99.90;;;;;;5049389;28;20207;-41
2022/04/07 11:54:03;;;;;;;5.90;1.20;;;13.60;99.90;;;;;;5047773;28;20768;-42
2022/04/07 11:56:38;;;;;;;7.07;1.20;;;13.70;99.90;;;;;;5051680;28;20228;-42
2022/04/07 11:59:07;;;;;;;8.57;1.67;;;13.70;99.90;;;;;;5071488;28;20240;-41
2022/04/07 12:01:37;;;;;;;7.93;1.37;;;13.80;99.90;;;;;;5059421;28;20333;-41
2022/04/07 12:04:09;;;;;;;6.70;1.63;;;13.80;99.90;;;;;;5049570;28;20257;-42
2022/04/07 12:06:43;;;;;;;9.47;1.87;;;13.90;99.90;;;;;;5060497;28;20222;-42
2022/04/07 12:09:16;;;;;;;7.07;1.60;;;13.90;99.90;;;;;;5066429;28;20213;-41
2022/04/07 12:11:48;;;;;;;9.07;1.97;;;13.90;99.90;;;;;;5057096;28;20245;-42
2022/04/07 12:14:15;;;;;;;7.23;1.80;;;13.90;99.90;;;;;;5056904;28;20316;-42
2022/04/07 12:16:45;;;;;;;7.40;1.80;;;14.00;99.90;;;;;;5048075;28;20212;-42
2022/04/07 12:19:22;;;;;;;9.30;2.13;;;14.00;99.90;;;;;;5053860;28;20224;-42
2022/04/07 12:21:58;;;;;;;6.63;1.67;;;14.00;99.90;;;;;;5064588;28;20250;-41
2022/04/07 12:24:34;;;;;;;13.40;2.27;;;14.00;99.90;;;;;;5061514;28;20543;-41
2022/04/07 12:27:04;;;;;;;15.57;3.47;;;14.00;99.90;;;;;;5046472;28;20216;-42
2022/04/07 12:29:33;;;;;;;8.30;1.93;;;13.90;99.90;;;;;;5052157;28;20208;-43
2022/04/07 12:32:03;;;;;;;8.73;1.90;;;13.80;99.90;;;;;;5057483;28;20213;-43
2022/04/07 12:34:31;;;;;;;18.57;2.23;;;13.80;99.90;;;;;;5048187;28;20224;-42
2022/04/07 12:36:59;;;;;;;9.90;1.83;;;13.90;99.90;;;;;;5048940;28;20204;-42
2022/04/07 12:39:34;;;;;;;13.17;2.17;;;14.00;99.90;;;;;;5054827;28;20184;-42
2022/04/07 12:42:10;;;;;;;11.97;3.00;;;13.90;99.90;;;;;;5052360;28;20870;-43
2022/04/07 12:44:43;;;;;;;11.07;2.30;;;14.00;99.90;;;;;;5061389;28;20306;-43
2022/04/07 12:47:14;;;;;;;9.63;2.43;;;14.10;99.90;;;;;;5058289;28;20219;-42
2022/04/07 12:49:59;;;;;;;9.70;2.07;;;14.10;99.90;;;;;;5064726;28;20348;-42
2022/04/07 12:52:43;;;;;;;12.73;2.43;;;14.10;99.90;;;;;;5065414;28;20216;-43
2022/04/07 12:55:15;;;;;;;11.33;2.37;;;14.10;99.90;;;;;;5062818;28;20696;-43
2022/04/07 12:57:47;;;;;;;9.73;2.07;;;14.10;99.90;;;;;;5064905;28;21707;-43
2022/04/07 13:00:34;;;;;;;13.65;2.60;;;14.10;99.90;;;;;;5054547;28;20204;-33
2022/04/07 13:03:17;;;;;;;9.07;2.53;;;14.10;99.90;;;;;;5053889;28;20228;-33
2022/04/07 13:05:44;;;;;;;8.47;2.50;;;14.00;99.90;;;;;;5061842;28;22012;-33